PWSweather.com
Personal Weather Stations
Station Observations
KCAPARAD1
Greenthumb Ln Near Elliott Rd, Paradise, CA 95969

Greenthumb Ln Near Elliott RdParadise, CA 95969

Lat: 39.759, Lon: -121.612

Elevation: 1824

Station Type: Davis Vantage Pro2 Plus

http://paradiseweatherstation.org

High Low Average
Temperature 107.4°F41.9°C 70.6°F21.4°C 88.0°F31.1°C
Dew Point 67.8°F19.9°C 51.3°F10.7°C 60.5°F15.8°C
Winds 3.5 mph 5.6 kmh Calm Calm Calm WSWCalm WSW
Wind Gusts 10.4 mph16.7 kmh -- 1.0 mph1.6 kmh
Humidity 66% 22% 43%
Pressure 29.79 in1008.8 mb 29.65 in1004.1 mb -
Precipitation 0.00 in0.0 mm - -
Hour Temp Dew Point Humidity Winds Wind Gusts Pressure Precip Precip Rate Daily Precip Total
12:00 AM 82.0°F27.8°C 53.9°F12.2°C 38% 1.2 mph NW1.9 kmh NW 3.5 mph5.6 kmh 29.79 in1008.8 mb - 0.00 in0.0 mm 0.00 in0.0 mm
12:10 AM 82.4°F28.0°C 54.2°F12.3°C 38% Calm Calm 3.5 mph5.6 kmh 29.79 in1008.8 mb - 0.00 in0.0 mm 0.00 in0.0 mm
12:15 AM 82.5°F28.1°C 52.8°F11.6°C 36% 1.2 mph NE1.9 kmh NE 3.5 mph5.6 kmh 29.78 in1008.5 mb - 0.00 in0.0 mm 0.00 in0.0 mm
12:20 AM 82.7°F28.2°C 53.8°F12.1°C 37% Calm Calm 1.2 mph1.9 kmh 29.78 in1008.5 mb - 0.00 in0.0 mm 0.00 in0.0 mm
12:25 AM 82.6°F28.1°C 52.9°F11.6°C 36% 1.2 mph NE1.9 kmh NE 5.8 mph9.3 kmh 29.78 in1008.5 mb - 0.00 in0.0 mm 0.00 in0.0 mm
12:30 AM 82.6°F28.1°C 52.9°F11.6°C 36% 1.2 mph N1.9 kmh N 3.5 mph5.6 kmh 29.78 in1008.5 mb - 0.00 in0.0 mm 0.00 in0.0 mm
12:35 AM 82.4°F28.0°C 52.8°F11.6°C 36% Calm Calm 3.5 mph5.6 kmh 29.78 in1008.5 mb - 0.00 in0.0 mm 0.00 in0.0 mm
12:40 AM 82.5°F28.1°C 52.9°F11.6°C 36% Calm Calm 1.2 mph1.9 kmh 29.78 in1008.5 mb - 0.00 in0.0 mm 0.00 in0.0 mm
12:45 AM 82.7°F28.2°C 53.0°F11.7°C 36% Calm Calm 3.5 mph5.6 kmh 29.78 in1008.5 mb - 0.00 in0.0 mm 0.00 in0.0 mm
12:50 AM 82.7°F28.2°C 52.3°F11.3°C 35% Calm Calm -- 29.78 in1008.5 mb - 0.00 in0.0 mm 0.00 in0.0 mm
12:55 AM 82.4°F28.0°C 53.5°F11.9°C 37% Calm Calm 1.2 mph1.9 kmh 29.78 in1008.5 mb - 0.00 in0.0 mm 0.00 in0.0 mm
01:00 AM 81.7°F27.6°C 54.3°F12.4°C 39% Calm Calm -- 29.78 in1008.5 mb - 0.00 in0.0 mm 0.00 in0.0 mm
01:10 AM 80.1°F26.7°C 54.3°F12.4°C 41% Calm Calm -- 29.79 in1008.8 mb - 0.00 in0.0 mm 0.00 in0.0 mm
01:15 AM 79.4°F26.3°C 54.3°F12.4°C 42% Calm Calm -- 29.79 in1008.8 mb - 0.00 in0.0 mm 0.00 in0.0 mm
01:20 AM 78.9°F26.1°C 55.1°F12.8°C 44% Calm Calm -- 29.78 in1008.5 mb - 0.00 in0.0 mm 0.00 in0.0 mm
01:25 AM 78.4°F25.8°C 54.7°F12.6°C 44% Calm Calm -- 29.79 in1008.8 mb - 0.00 in0.0 mm 0.00 in0.0 mm
01:30 AM 77.9°F25.5°C 54.8°F12.7°C 45% Calm Calm -- 29.79 in1008.8 mb - 0.00 in0.0 mm 0.00 in0.0 mm
01:35 AM 77.3°F25.2°C 54.9°F12.7°C 46% Calm Calm -- 29.78 in1008.5 mb - 0.00 in0.0 mm 0.00 in0.0 mm
01:40 AM 76.8°F24.9°C 55.0°F12.8°C 47% Calm Calm -- 29.78 in1008.5 mb - 0.00 in0.0 mm 0.00 in0.0 mm
01:45 AM 76.2°F24.6°C 55.6°F13.1°C 49% Calm Calm -- 29.78 in1008.5 mb - 0.00 in0.0 mm 0.00 in0.0 mm
01:50 AM 75.8°F24.3°C 55.3°F12.9°C 49% Calm Calm -- 29.78 in1008.5 mb - 0.00 in0.0 mm 0.00 in0.0 mm
01:55 AM 75.5°F24.2°C 55.6°F13.1°C 50% Calm Calm 1.2 mph1.9 kmh 29.78 in1008.5 mb - 0.00 in0.0 mm 0.00 in0.0 mm
02:00 AM 75.3°F24.1°C 55.4°F13.0°C 50% Calm Calm 1.2 mph1.9 kmh 29.78 in1008.5 mb - 0.00 in0.0 mm 0.00 in0.0 mm
02:10 AM 75.1°F23.9°C 54.6°F12.6°C 49% Calm Calm 1.2 mph1.9 kmh 29.77 in1008.1 mb - 0.00 in0.0 mm 0.00 in0.0 mm
02:15 AM 75.2°F24.0°C 54.7°F12.6°C 49% Calm Calm -- 29.77 in1008.1 mb - 0.00 in0.0 mm 0.00 in0.0 mm
02:20 AM 75.2°F24.0°C 54.2°F12.3°C 48% 1.2 mph N1.9 kmh N 3.5 mph5.6 kmh 29.77 in1008.1 mb - 0.00 in0.0 mm 0.00 in0.0 mm
02:25 AM 76.0°F24.4°C 54.3°F12.4°C 47% Calm Calm 1.2 mph1.9 kmh 29.77 in1008.1 mb - 0.00 in0.0 mm 0.00 in0.0 mm
02:30 AM 77.0°F25.0°C 53.4°F11.9°C 44% Calm Calm 1.2 mph1.9 kmh 29.77 in1008.1 mb - 0.00 in0.0 mm 0.00 in0.0 mm
02:35 AM 78.3°F25.7°C 52.7°F11.5°C 41% 2.3 mph WNW3.7 kmh WNW 3.5 mph5.6 kmh 29.76 in1007.8 mb - 0.00 in0.0 mm 0.00 in0.0 mm
02:40 AM 79.5°F26.4°C 52.4°F11.3°C 39% 1.2 mph N1.9 kmh N 1.2 mph1.9 kmh 29.76 in1007.8 mb - 0.00 in0.0 mm 0.00 in0.0 mm
02:45 AM 80.5°F26.9°C 52.6°F11.4°C 38% Calm Calm 2.3 mph3.7 kmh 29.77 in1008.1 mb - 0.00 in0.0 mm 0.00 in0.0 mm
02:50 AM 81.0°F27.2°C 52.3°F11.3°C 37% 1.2 mph NE1.9 kmh NE 3.5 mph5.6 kmh 29.77 in1008.1 mb - 0.00 in0.0 mm 0.00 in0.0 mm
02:55 AM 81.6°F27.6°C 51.3°F10.7°C 35% Calm Calm 3.5 mph5.6 kmh 29.76 in1007.8 mb - 0.00 in0.0 mm 0.00 in0.0 mm
03:00 AM 82.1°F27.8°C 52.5°F11.4°C 36% Calm Calm 1.2 mph1.9 kmh 29.77 in1008.1 mb - 0.00 in0.0 mm 0.00 in0.0 mm
03:10 AM 81.5°F27.5°C 52.0°F11.1°C 36% 1.2 mph SSW1.9 kmh SSW 2.3 mph3.7 kmh 29.76 in1007.8 mb - 0.00 in0.0 mm 0.00 in0.0 mm
03:15 AM 81.1°F27.3°C 52.3°F11.3°C 37% Calm Calm 3.5 mph5.6 kmh 29.76 in1007.8 mb - 0.00 in0.0 mm 0.00 in0.0 mm
03:20 AM 80.7°F27.1°C 52.7°F11.5°C 38% Calm Calm 3.5 mph5.6 kmh 29.76 in1007.8 mb - 0.00 in0.0 mm 0.00 in0.0 mm
03:25 AM 80.5°F26.9°C 52.5°F11.4°C 38% Calm Calm -- 29.76 in1007.8 mb - 0.00 in0.0 mm 0.00 in0.0 mm
03:30 AM 80.0°F26.7°C 53.5°F11.9°C 40% Calm Calm -- 29.76 in1007.8 mb - 0.00 in0.0 mm 0.00 in0.0 mm
03:35 AM 79.2°F26.2°C 53.5°F11.9°C 41% Calm Calm -- 29.76 in1007.8 mb - 0.00 in0.0 mm 0.00 in0.0 mm
03:40 AM 78.4°F25.8°C 54.0°F12.2°C 43% Calm Calm -- 29.76 in1007.8 mb - 0.00 in0.0 mm 0.00 in0.0 mm
03:45 AM 77.8°F25.4°C 54.2°F12.3°C 44% Calm Calm -- 29.76 in1007.8 mb - 0.00 in0.0 mm 0.00 in0.0 mm
03:50 AM 77.2°F25.1°C 54.8°F12.7°C 46% Calm Calm -- 29.76 in1007.8 mb - 0.00 in0.0 mm 0.00 in0.0 mm
03:55 AM 76.6°F24.8°C 54.9°F12.7°C 47% Calm Calm -- 29.76 in1007.8 mb - 0.00 in0.0 mm 0.00 in0.0 mm
04:00 AM 76.1°F24.5°C 54.9°F12.7°C 48% Calm Calm 1.2 mph1.9 kmh 29.76 in1007.8 mb - 0.00 in0.0 mm 0.00 in0.0 mm
04:10 AM 75.1°F23.9°C 54.6°F12.6°C 49% Calm Calm 1.2 mph1.9 kmh 29.76 in1007.8 mb - 0.00 in0.0 mm 0.00 in0.0 mm
04:15 AM 74.6°F23.7°C 55.3°F12.9°C 51% Calm Calm -- 29.76 in1007.8 mb - 0.00 in0.0 mm 0.00 in0.0 mm
04:20 AM 74.2°F23.4°C 55.4°F13.0°C 52% Calm Calm -- 29.76 in1007.8 mb - 0.00 in0.0 mm 0.00 in0.0 mm
04:25 AM 74.1°F23.4°C 54.8°F12.7°C 51% Calm Calm -- 29.76 in1007.8 mb - 0.00 in0.0 mm 0.00 in0.0 mm
04:30 AM 73.6°F23.1°C 55.4°F13.0°C 53% Calm Calm -- 29.76 in1007.8 mb - 0.00 in0.0 mm 0.00 in0.0 mm
04:35 AM 73.3°F22.9°C 55.1°F12.8°C 53% Calm Calm -- 29.76 in1007.8 mb - 0.00 in0.0 mm 0.00 in0.0 mm
04:40 AM 73.0°F22.8°C 55.4°F13.0°C 54% Calm Calm -- 29.76 in1007.8 mb - 0.00 in0.0 mm 0.00 in0.0 mm
04:45 AM 72.7°F22.6°C 55.1°F12.8°C 54% Calm Calm 1.2 mph1.9 kmh 29.77 in1008.1 mb - 0.00 in0.0 mm 0.00 in0.0 mm
04:50 AM 72.5°F22.5°C 55.4°F13.0°C 55% Calm Calm -- 29.77 in1008.1 mb - 0.00 in0.0 mm 0.00 in0.0 mm
04:55 AM 72.2°F22.3°C 55.6°F13.1°C 56% Calm Calm -- 29.77 in1008.1 mb - 0.00 in0.0 mm 0.00 in0.0 mm
05:00 AM 72.0°F22.2°C 54.9°F12.7°C 55% Calm Calm -- 29.76 in1007.8 mb - 0.00 in0.0 mm 0.00 in0.0 mm
05:10 AM 71.5°F21.9°C 55.9°F13.3°C 58% Calm Calm -- 29.77 in1008.1 mb - 0.00 in0.0 mm 0.00 in0.0 mm
05:15 AM 71.3°F21.8°C 55.8°F13.2°C 58% Calm Calm -- 29.76 in1007.8 mb - 0.00 in0.0 mm 0.00 in0.0 mm
05:20 AM 71.2°F21.8°C 55.7°F13.2°C 58% Calm Calm -- 29.76 in1007.8 mb - 0.00 in0.0 mm 0.00 in0.0 mm
05:25 AM 71.0°F21.7°C 56.0°F13.3°C 59% Calm Calm 3.5 mph5.6 kmh 29.76 in1007.8 mb - 0.00 in0.0 mm 0.00 in0.0 mm
05:30 AM 71.2°F21.8°C 55.2°F12.9°C 57% Calm Calm -- 29.76 in1007.8 mb - 0.00 in0.0 mm 0.00 in0.0 mm
05:35 AM 71.0°F21.7°C 55.5°F13.1°C 58% Calm Calm -- 29.76 in1007.8 mb - 0.00 in0.0 mm 0.00 in0.0 mm
05:40 AM 70.8°F21.6°C 55.3°F12.9°C 58% Calm Calm 2.3 mph3.7 kmh 29.76 in1007.8 mb - 0.00 in0.0 mm 0.00 in0.0 mm
05:45 AM 70.7°F21.5°C 55.2°F12.9°C 58% Calm Calm -- 29.76 in1007.8 mb - 0.00 in0.0 mm 0.00 in0.0 mm
05:50 AM 70.8°F21.6°C 55.8°F13.2°C 59% Calm Calm 1.2 mph1.9 kmh 29.76 in1007.8 mb - 0.00 in0.0 mm 0.00 in0.0 mm
05:55 AM 70.7°F21.5°C 55.7°F13.2°C 59% Calm Calm -- 29.76 in1007.8 mb - 0.00 in0.0 mm 0.00 in0.0 mm
06:00 AM 70.6°F21.4°C 55.6°F13.1°C 59% Calm Calm 1.2 mph1.9 kmh 29.76 in1007.8 mb - 0.00 in0.0 mm 0.00 in0.0 mm
06:10 AM 70.6°F21.4°C 56.0°F13.3°C 60% 1.2 mph E1.9 kmh E 2.3 mph3.7 kmh 29.76 in1007.8 mb - 0.00 in0.0 mm 0.00 in0.0 mm
06:15 AM 70.7°F21.5°C 56.1°F13.4°C 60% Calm Calm -- 29.76 in1007.8 mb - 0.00 in0.0 mm 0.00 in0.0 mm
06:20 AM 70.7°F21.5°C 56.1°F13.4°C 60% Calm Calm 2.3 mph3.7 kmh 29.76 in1007.8 mb - 0.00 in0.0 mm 0.00 in0.0 mm
06:25 AM 70.8°F21.6°C 56.2°F13.4°C 60% Calm Calm 1.2 mph1.9 kmh 29.76 in1007.8 mb - 0.00 in0.0 mm 0.00 in0.0 mm
06:30 AM 70.9°F21.6°C 56.3°F13.5°C 60% Calm Calm -- 29.76 in1007.8 mb - 0.00 in0.0 mm 0.00 in0.0 mm
06:35 AM 70.8°F21.6°C 57.1°F13.9°C 62% Calm Calm -- 29.76 in1007.8 mb - 0.00 in0.0 mm 0.00 in0.0 mm
06:40 AM 71.2°F21.8°C 56.6°F13.7°C 60% Calm Calm 1.2 mph1.9 kmh 29.76 in1007.8 mb - 0.00 in0.0 mm 0.00 in0.0 mm
06:45 AM 71.7°F22.1°C 57.1°F13.9°C 60% Calm Calm -- 29.76 in1007.8 mb - 0.00 in0.0 mm 0.00 in0.0 mm
06:50 AM 72.1°F22.3°C 57.0°F13.9°C 59% Calm Calm 1.2 mph1.9 kmh 29.76 in1007.8 mb - 0.00 in0.0 mm 0.00 in0.0 mm
06:55 AM 72.2°F22.3°C 57.5°F14.2°C 60% Calm Calm -- 29.76 in1007.8 mb - 0.00 in0.0 mm 0.00 in0.0 mm
07:00 AM 72.6°F22.6°C 57.4°F14.1°C 59% Calm Calm 1.2 mph1.9 kmh 29.76 in1007.8 mb - 0.00 in0.0 mm 0.00 in0.0 mm
07:10 AM 73.2°F22.9°C 58.0°F14.4°C 59% Calm Calm -- 29.76 in1007.8 mb - 0.00 in0.0 mm 0.00 in0.0 mm
07:15 AM 73.5°F23.1°C 58.8°F14.9°C 60% Calm Calm -- 29.76 in1007.8 mb - 0.00 in0.0 mm 0.00 in0.0 mm
07:20 AM 73.5°F23.1°C 58.8°F14.9°C 60% Calm Calm -- 29.76 in1007.8 mb - 0.00 in0.0 mm 0.00 in0.0 mm
07:25 AM 73.8°F23.2°C 59.5°F15.3°C 61% Calm Calm 1.2 mph1.9 kmh 29.76 in1007.8 mb - 0.00 in0.0 mm 0.00 in0.0 mm
07:30 AM 74.0°F23.3°C 59.7°F15.4°C 61% 1.2 mph NW1.9 kmh NW 1.2 mph1.9 kmh 29.76 in1007.8 mb - 0.00 in0.0 mm 0.00 in0.0 mm
07:35 AM 74.9°F23.8°C 59.7°F15.4°C 59% Calm Calm 2.3 mph3.7 kmh 29.76 in1007.8 mb - 0.00 in0.0 mm 0.00 in0.0 mm
07:40 AM 75.8°F24.3°C 60.4°F15.8°C 59% Calm Calm -- 29.76 in1007.8 mb - 0.00 in0.0 mm 0.00 in0.0 mm
07:45 AM 77.0°F25.0°C 59.1°F15.1°C 54% Calm Calm -- 29.76 in1007.8 mb - 0.00 in0.0 mm 0.00 in0.0 mm
07:50 AM 77.7°F25.4°C 59.2°F15.1°C 53% Calm Calm 3.5 mph5.6 kmh 29.76 in1007.8 mb - 0.00 in0.0 mm 0.00 in0.0 mm
07:55 AM 79.3°F26.3°C 58.5°F14.7°C 49% Calm Calm -- 29.76 in1007.8 mb - 0.00 in0.0 mm 0.00 in0.0 mm
08:00 AM 79.9°F26.6°C 59.6°F15.3°C 50% Calm Calm -- 29.76 in1007.8 mb - 0.00 in0.0 mm 0.00 in0.0 mm
08:10 AM 80.7°F27.1°C 58.6°F14.8°C 47% 1.2 mph NW1.9 kmh NW 2.3 mph3.7 kmh 29.76 in1007.8 mb - 0.00 in0.0 mm 0.00 in0.0 mm
08:15 AM 82.4°F28.0°C 57.7°F14.3°C 43% Calm Calm 1.2 mph1.9 kmh 29.77 in1008.1 mb - 0.00 in0.0 mm 0.00 in0.0 mm
08:20 AM 83.6°F28.7°C 56.0°F13.3°C 39% Calm Calm -- 29.76 in1007.8 mb - 0.00 in0.0 mm 0.00 in0.0 mm
08:25 AM 84.7°F29.3°C 58.4°F14.7°C 41% Calm Calm 1.2 mph1.9 kmh 29.77 in1008.1 mb - 0.00 in0.0 mm 0.00 in0.0 mm
08:30 AM 85.1°F29.5°C 58.7°F14.8°C 41% Calm Calm 2.3 mph3.7 kmh 29.77 in1008.1 mb - 0.00 in0.0 mm 0.00 in0.0 mm
08:35 AM 85.9°F29.9°C 60.8°F16.0°C 43% Calm Calm -- 29.77 in1008.1 mb - 0.00 in0.0 mm 0.00 in0.0 mm
08:40 AM 86.1°F30.1°C 60.3°F15.7°C 42% Calm Calm -- 29.77 in1008.1 mb - 0.00 in0.0 mm 0.00 in0.0 mm
08:45 AM 86.8°F30.4°C 57.4°F14.1°C 37% 1.2 mph NE1.9 kmh NE 3.5 mph5.6 kmh 29.77 in1008.1 mb - 0.00 in0.0 mm 0.00 in0.0 mm
08:50 AM 87.6°F30.9°C 58.1°F14.5°C 37% Calm Calm -- 29.77 in1008.1 mb - 0.00 in0.0 mm 0.00 in0.0 mm
08:55 AM 88.5°F31.4°C 55.7°F13.2°C 33% Calm Calm 1.2 mph1.9 kmh 29.77 in1008.1 mb - 0.00 in0.0 mm 0.00 in0.0 mm
09:00 AM 89.3°F31.8°C 57.3°F14.1°C 34% Calm Calm -- 29.77 in1008.1 mb - 0.00 in0.0 mm 0.00 in0.0 mm
09:10 AM 90.2°F32.3°C 57.2°F14.0°C 33% 2.3 mph NE3.7 kmh NE 2.3 mph3.7 kmh 29.77 in1008.1 mb - 0.00 in0.0 mm 0.00 in0.0 mm
09:15 AM 90.5°F32.5°C 58.3°F14.6°C 34% 2.3 mph NNE3.7 kmh NNE 3.5 mph5.6 kmh 29.77 in1008.1 mb - 0.00 in0.0 mm 0.00 in0.0 mm
09:20 AM 91.0°F32.8°C 59.5°F15.3°C 35% Calm Calm 1.2 mph1.9 kmh 29.77 in1008.1 mb - 0.00 in0.0 mm 0.00 in0.0 mm
09:25 AM 91.0°F32.8°C 57.0°F13.9°C 32% Calm Calm 1.2 mph1.9 kmh 29.77 in1008.1 mb - 0.00 in0.0 mm 0.00 in0.0 mm
09:30 AM 91.3°F32.9°C 58.2°F14.6°C 33% 1.2 mph S1.9 kmh S 2.3 mph3.7 kmh 29.77 in1008.1 mb - 0.00 in0.0 mm 0.00 in0.0 mm
09:35 AM 92.1°F33.4°C 58.0°F14.4°C 32% 1.2 mph S1.9 kmh S 1.2 mph1.9 kmh 29.77 in1008.1 mb - 0.00 in0.0 mm 0.00 in0.0 mm
09:40 AM 92.2°F33.4°C 59.8°F15.4°C 34% 3.5 mph NNE5.6 kmh NNE 5.8 mph9.3 kmh 29.77 in1008.1 mb - 0.00 in0.0 mm 0.00 in0.0 mm
09:45 AM 92.7°F33.7°C 57.6°F14.2°C 31% 1.2 mph SE1.9 kmh SE 3.5 mph5.6 kmh 29.77 in1008.1 mb - 0.00 in0.0 mm 0.00 in0.0 mm
09:50 AM 92.8°F33.8°C 59.5°F15.3°C 33% Calm Calm 1.2 mph1.9 kmh 29.77 in1008.1 mb - 0.00 in0.0 mm 0.00 in0.0 mm
09:55 AM 93.3°F34.1°C 59.0°F15.0°C 32% Calm Calm -- 29.77 in1008.1 mb - 0.00 in0.0 mm 0.00 in0.0 mm
10:00 AM 94.6°F34.8°C 59.3°F15.2°C 31% Calm Calm 1.2 mph1.9 kmh 29.77 in1008.1 mb - 0.00 in0.0 mm 0.00 in0.0 mm
10:10 AM 94.8°F34.9°C 57.6°F14.2°C 29% 2.3 mph S3.7 kmh S 3.5 mph5.6 kmh 29.77 in1008.1 mb - 0.00 in0.0 mm 0.00 in0.0 mm
10:15 AM 94.6°F34.8°C 56.4°F13.6°C 28% 1.2 mph SW1.9 kmh SW 1.2 mph1.9 kmh 29.76 in1007.8 mb - 0.00 in0.0 mm 0.00 in0.0 mm
10:20 AM 94.9°F34.9°C 57.7°F14.3°C 29% 1.2 mph S1.9 kmh S 3.5 mph5.6 kmh 29.76 in1007.8 mb - 0.00 in0.0 mm 0.00 in0.0 mm
10:25 AM 95.2°F35.1°C 56.9°F13.8°C 28% 1.2 mph NNE1.9 kmh NNE 2.3 mph3.7 kmh 29.77 in1008.1 mb - 0.00 in0.0 mm 0.00 in0.0 mm
10:30 AM 95.3°F35.2°C 59.0°F15.0°C 30% Calm Calm -- 29.76 in1007.8 mb - 0.00 in0.0 mm 0.00 in0.0 mm
10:35 AM 95.9°F35.5°C 57.6°F14.2°C 28% 2.3 mph ESE3.7 kmh ESE 3.5 mph5.6 kmh 29.76 in1007.8 mb - 0.00 in0.0 mm 0.00 in0.0 mm
10:40 AM 95.9°F35.5°C 57.6°F14.2°C 28% 2.3 mph NE3.7 kmh NE 2.3 mph3.7 kmh 29.76 in1007.8 mb - 0.00 in0.0 mm 0.00 in0.0 mm
10:45 AM 96.1°F35.6°C 58.7°F14.8°C 29% 1.2 mph SW1.9 kmh SW 3.5 mph5.6 kmh 29.76 in1007.8 mb - 0.00 in0.0 mm 0.00 in0.0 mm
10:50 AM 96.5°F35.8°C 57.0°F13.9°C 27% 1.2 mph ESE1.9 kmh ESE 3.5 mph5.6 kmh 29.76 in1007.8 mb - 0.00 in0.0 mm 0.00 in0.0 mm
10:55 AM 97.2°F36.2°C 57.6°F14.2°C 27% 1.2 mph NE1.9 kmh NE 3.5 mph5.6 kmh 29.76 in1007.8 mb - 0.00 in0.0 mm 0.00 in0.0 mm
11:00 AM 97.0°F36.1°C 57.5°F14.2°C 27% 1.2 mph NW1.9 kmh NW 3.5 mph5.6 kmh 29.76 in1007.8 mb - 0.00 in0.0 mm 0.00 in0.0 mm
11:10 AM 96.7°F35.9°C 58.2°F14.6°C 28% 1.2 mph SSE1.9 kmh SSE 4.6 mph7.4 kmh 29.76 in1007.8 mb - 0.00 in0.0 mm 0.00 in0.0 mm
11:15 AM 97.2°F36.2°C 58.7°F14.8°C 28% 1.2 mph S1.9 kmh S 2.3 mph3.7 kmh 29.76 in1007.8 mb - 0.00 in0.0 mm 0.00 in0.0 mm
11:20 AM 97.1°F36.2°C 58.6°F14.8°C 28% 1.2 mph WNW1.9 kmh WNW 2.3 mph3.7 kmh 29.76 in1007.8 mb - 0.00 in0.0 mm 0.00 in0.0 mm
11:25 AM 97.3°F36.3°C 58.7°F14.8°C 28% 1.2 mph NNW1.9 kmh NNW 3.5 mph5.6 kmh 29.76 in1007.8 mb - 0.00 in0.0 mm 0.00 in0.0 mm
11:30 AM 97.6°F36.4°C 59.0°F15.0°C 28% 1.2 mph N1.9 kmh N 4.6 mph7.4 kmh 29.76 in1007.8 mb - 0.00 in0.0 mm 0.00 in0.0 mm
11:35 AM 98.0°F36.7°C 58.3°F14.6°C 27% 2.3 mph NNW3.7 kmh NNW 3.5 mph5.6 kmh 29.76 in1007.8 mb - 0.00 in0.0 mm 0.00 in0.0 mm
11:40 AM 98.8°F37.1°C 59.0°F15.0°C 27% 1.2 mph NE1.9 kmh NE 3.5 mph5.6 kmh 29.76 in1007.8 mb - 0.00 in0.0 mm 0.00 in0.0 mm
11:45 AM 98.5°F36.9°C 57.7°F14.3°C 26% 2.3 mph SW3.7 kmh SW 10.4 mph16.7 kmh 29.76 in1007.8 mb - 0.00 in0.0 mm 0.00 in0.0 mm
11:50 AM 98.4°F36.9°C 58.6°F14.8°C 27% 1.2 mph NE1.9 kmh NE 4.6 mph7.4 kmh 29.76 in1007.8 mb - 0.00 in0.0 mm 0.00 in0.0 mm
11:55 AM 99.2°F37.3°C 59.4°F15.2°C 27% 1.2 mph NE1.9 kmh NE 3.5 mph5.6 kmh 29.76 in1007.8 mb - 0.00 in0.0 mm 0.00 in0.0 mm
12:00 PM 99.2°F37.3°C 58.3°F14.6°C 26% 1.2 mph ESE1.9 kmh ESE 4.6 mph7.4 kmh 29.76 in1007.8 mb - 0.00 in0.0 mm 0.00 in0.0 mm
12:10 PM 99.8°F37.7°C 59.9°F15.5°C 27% 2.3 mph NE3.7 kmh NE 3.5 mph5.6 kmh 29.75 in1007.5 mb - 0.00 in0.0 mm 0.00 in0.0 mm
12:15 PM 100.8°F38.2°C 59.6°F15.3°C 26% Calm Calm 3.5 mph5.6 kmh 29.75 in1007.5 mb - 0.00 in0.0 mm 0.00 in0.0 mm
12:20 PM 100.4°F38.0°C 58.2°F14.6°C 25% 1.2 mph S1.9 kmh S 3.5 mph5.6 kmh 29.75 in1007.5 mb - 0.00 in0.0 mm 0.00 in0.0 mm
12:25 PM 101.3°F38.5°C 61.2°F16.2°C 27% 1.2 mph NE1.9 kmh NE 4.6 mph7.4 kmh 29.75 in1007.5 mb - 0.00 in0.0 mm 0.00 in0.0 mm
12:30 PM 101.4°F38.6°C 60.1°F15.6°C 26% 2.3 mph WNW3.7 kmh WNW 9.2 mph14.8 kmh 29.75 in1007.5 mb - 0.00 in0.0 mm 0.00 in0.0 mm
12:35 PM 101.4°F38.6°C 59.0°F15.0°C 25% 1.2 mph W1.9 kmh W 2.3 mph3.7 kmh 29.74 in1007.1 mb - 0.00 in0.0 mm 0.00 in0.0 mm
12:40 PM 101.1°F38.4°C 59.9°F15.5°C 26% 2.3 mph ENE3.7 kmh ENE 9.2 mph14.8 kmh 29.74 in1007.1 mb - 0.00 in0.0 mm 0.00 in0.0 mm
12:45 PM 101.6°F38.7°C 59.2°F15.1°C 25% 3.5 mph N5.6 kmh N 8.1 mph13.0 kmh 29.74 in1007.1 mb - 0.00 in0.0 mm 0.00 in0.0 mm
12:50 PM 101.4°F38.6°C 60.1°F15.6°C 26% 1.2 mph SSE1.9 kmh SSE 3.5 mph5.6 kmh 29.74 in1007.1 mb - 0.00 in0.0 mm 0.00 in0.0 mm
12:55 PM 102.0°F38.9°C 61.7°F16.5°C 27% 1.2 mph W1.9 kmh W 2.3 mph3.7 kmh 29.74 in1007.1 mb - 0.00 in0.0 mm 0.00 in0.0 mm
01:00 PM 102.5°F39.2°C 60.0°F15.6°C 25% 1.2 mph N1.9 kmh N 2.3 mph3.7 kmh 29.74 in1007.1 mb - 0.00 in0.0 mm 0.00 in0.0 mm
01:10 PM 103.2°F39.6°C 60.6°F15.9°C 25% Calm Calm 3.5 mph5.6 kmh 29.73 in1006.8 mb - 0.00 in0.0 mm 0.00 in0.0 mm
01:15 PM 103.3°F39.6°C 60.7°F15.9°C 25% Calm Calm 3.5 mph5.6 kmh 29.73 in1006.8 mb - 0.00 in0.0 mm 0.00 in0.0 mm
01:20 PM 104.1°F40.1°C 61.3°F16.3°C 25% Calm Calm 1.2 mph1.9 kmh 29.73 in1006.8 mb - 0.00 in0.0 mm 0.00 in0.0 mm
01:25 PM 104.3°F40.2°C 61.5°F16.4°C 25% 1.2 mph ENE1.9 kmh ENE 3.5 mph5.6 kmh 29.73 in1006.8 mb - 0.00 in0.0 mm 0.00 in0.0 mm
01:30 PM 104.4°F40.2°C 61.6°F16.4°C 25% 1.2 mph WSW1.9 kmh WSW 2.3 mph3.7 kmh 29.72 in1006.4 mb - 0.00 in0.0 mm 0.00 in0.0 mm
01:35 PM 105.0°F40.6°C 62.1°F16.7°C 25% 1.2 mph NE1.9 kmh NE 2.3 mph3.7 kmh 29.73 in1006.8 mb - 0.00 in0.0 mm 0.00 in0.0 mm
01:40 PM 104.7°F40.4°C 59.4°F15.2°C 23% Calm Calm 2.3 mph3.7 kmh 29.72 in1006.4 mb - 0.00 in0.0 mm 0.00 in0.0 mm
01:45 PM 104.1°F40.1°C 59.0°F15.0°C 23% 1.2 mph S1.9 kmh S 3.5 mph5.6 kmh 29.72 in1006.4 mb - 0.00 in0.0 mm 0.00 in0.0 mm
01:50 PM 104.3°F40.2°C 60.3°F15.7°C 24% 1.2 mph NE1.9 kmh NE 1.2 mph1.9 kmh 29.72 in1006.4 mb - 0.00 in0.0 mm 0.00 in0.0 mm
01:55 PM 104.4°F40.2°C 62.7°F17.1°C 26% Calm Calm 3.5 mph5.6 kmh 29.72 in1006.4 mb - 0.00 in0.0 mm 0.00 in0.0 mm
02:00 PM 104.8°F40.4°C 60.8°F16.0°C 24% 1.2 mph NE1.9 kmh NE 5.8 mph9.3 kmh 29.72 in1006.4 mb - 0.00 in0.0 mm 0.00 in0.0 mm
02:10 PM 106.4°F41.3°C 60.9°F16.1°C 23% 1.2 mph NNE1.9 kmh NNE 4.6 mph7.4 kmh 29.71 in1006.1 mb - 0.00 in0.0 mm 0.00 in0.0 mm
02:15 PM 105.3°F40.7°C 61.2°F16.2°C 24% Calm Calm 1.2 mph1.9 kmh 29.71 in1006.1 mb - 0.00 in0.0 mm 0.00 in0.0 mm
02:20 PM 106.1°F41.2°C 61.8°F16.6°C 24% Calm Calm 2.3 mph3.7 kmh 29.71 in1006.1 mb - 0.00 in0.0 mm 0.00 in0.0 mm
02:25 PM 106.1°F41.2°C 60.6°F15.9°C 23% Calm Calm -- 29.71 in1006.1 mb - 0.00 in0.0 mm 0.00 in0.0 mm
02:30 PM 106.0°F41.1°C 60.5°F15.8°C 23% 1.2 mph SE1.9 kmh SE 3.5 mph5.6 kmh 29.71 in1006.1 mb - 0.00 in0.0 mm 0.00 in0.0 mm
02:35 PM 106.0°F41.1°C 60.5°F15.8°C 23% Calm Calm -- 29.71 in1006.1 mb - 0.00 in0.0 mm 0.00 in0.0 mm
02:40 PM 106.2°F41.2°C 60.7°F15.9°C 23% Calm Calm 3.5 mph5.6 kmh 29.71 in1006.1 mb - 0.00 in0.0 mm 0.00 in0.0 mm
02:45 PM 105.8°F41.0°C 60.4°F15.8°C 23% 1.2 mph SE1.9 kmh SE 2.3 mph3.7 kmh 29.70 in1005.8 mb - 0.00 in0.0 mm 0.00 in0.0 mm
02:50 PM 106.4°F41.3°C 60.9°F16.1°C 23% 1.2 mph NNE1.9 kmh NNE 3.5 mph5.6 kmh 29.70 in1005.8 mb - 0.00 in0.0 mm 0.00 in0.0 mm
02:55 PM 107.0°F41.7°C 62.5°F16.9°C 24% Calm Calm 1.2 mph1.9 kmh 29.70 in1005.8 mb - 0.00 in0.0 mm 0.00 in0.0 mm
03:00 PM 107.2°F41.8°C 60.3°F15.7°C 22% 1.2 mph S1.9 kmh S 1.2 mph1.9 kmh 29.70 in1005.8 mb - 0.00 in0.0 mm 0.00 in0.0 mm
03:10 PM 107.0°F41.7°C 62.6°F17.0°C 24% Calm Calm 1.2 mph1.9 kmh 29.69 in1005.4 mb - 0.00 in0.0 mm 0.00 in0.0 mm
03:15 PM 107.1°F41.7°C 60.2°F15.7°C 22% 1.2 mph NNE1.9 kmh NNE 3.5 mph5.6 kmh 29.69 in1005.4 mb - 0.00 in0.0 mm 0.00 in0.0 mm
03:20 PM 107.2°F41.8°C 60.3°F15.7°C 22% 1.2 mph SE1.9 kmh SE 2.3 mph3.7 kmh 29.69 in1005.4 mb - 0.00 in0.0 mm 0.00 in0.0 mm
03:25 PM 107.4°F41.9°C 62.9°F17.2°C 24% 3.5 mph N5.6 kmh N 4.6 mph7.4 kmh 29.69 in1005.4 mb - 0.00 in0.0 mm 0.00 in0.0 mm
03:30 PM 106.9°F41.6°C 62.5°F16.9°C 24% 1.2 mph SSW1.9 kmh SSW 2.3 mph3.7 kmh 29.68 in1005.1 mb - 0.00 in0.0 mm 0.00 in0.0 mm
03:35 PM 106.2°F41.2°C 63.1°F17.3°C 25% Calm Calm -- 29.68 in1005.1 mb - 0.00 in0.0 mm 0.00 in0.0 mm
03:40 PM 106.5°F41.4°C 62.1°F16.7°C 24% Calm Calm 1.2 mph1.9 kmh 29.68 in1005.1 mb - 0.00 in0.0 mm 0.00 in0.0 mm
03:45 PM 105.8°F41.0°C 62.8°F17.1°C 25% 1.2 mph SSE1.9 kmh SSE 2.3 mph3.7 kmh 29.68 in1005.1 mb - 0.00 in0.0 mm 0.00 in0.0 mm
03:50 PM 104.8°F40.4°C 63.0°F17.2°C 26% Calm Calm 3.5 mph5.6 kmh 29.68 in1005.1 mb - 0.00 in0.0 mm 0.00 in0.0 mm
03:55 PM 104.4°F40.2°C 61.6°F16.4°C 25% 1.2 mph S1.9 kmh S 3.5 mph5.6 kmh 29.68 in1005.1 mb - 0.00 in0.0 mm 0.00 in0.0 mm
04:00 PM 103.9°F39.9°C 62.2°F16.8°C 26% 1.2 mph S1.9 kmh S 2.3 mph3.7 kmh 29.68 in1005.1 mb - 0.00 in0.0 mm 0.00 in0.0 mm
04:10 PM 103.5°F39.7°C 63.0°F17.2°C 27% Calm Calm 1.2 mph1.9 kmh 29.68 in1005.1 mb - 0.00 in0.0 mm 0.00 in0.0 mm
04:15 PM 103.2°F39.6°C 61.7°F16.5°C 26% 1.2 mph N1.9 kmh N 2.3 mph3.7 kmh 29.68 in1005.1 mb - 0.00 in0.0 mm 0.00 in0.0 mm
04:20 PM 103.0°F39.4°C 62.6°F17.0°C 27% Calm Calm 1.2 mph1.9 kmh 29.68 in1005.1 mb - 0.00 in0.0 mm 0.00 in0.0 mm
04:25 PM 102.7°F39.3°C 62.4°F16.9°C 27% Calm Calm -- 29.68 in1005.1 mb - 0.00 in0.0 mm 0.00 in0.0 mm
04:30 PM 102.1°F38.9°C 61.8°F16.6°C 27% Calm Calm 2.3 mph3.7 kmh 29.68 in1005.1 mb - 0.00 in0.0 mm 0.00 in0.0 mm
04:35 PM 102.1°F38.9°C 61.8°F16.6°C 27% Calm Calm -- 29.68 in1005.1 mb - 0.00 in0.0 mm 0.00 in0.0 mm
04:40 PM 101.9°F38.8°C 61.6°F16.4°C 27% 1.2 mph N1.9 kmh N 3.5 mph5.6 kmh 29.67 in1004.7 mb - 0.00 in0.0 mm 0.00 in0.0 mm
04:45 PM 101.8°F38.8°C 62.5°F16.9°C 28% Calm Calm -- 29.67 in1004.7 mb - 0.00 in0.0 mm 0.00 in0.0 mm
04:50 PM 101.2°F38.4°C 62.0°F16.7°C 28% Calm Calm -- 29.67 in1004.7 mb - 0.00 in0.0 mm 0.00 in0.0 mm
04:55 PM 101.0°F38.3°C 61.9°F16.6°C 28% Calm Calm 1.2 mph1.9 kmh 29.67 in1004.7 mb - 0.00 in0.0 mm 0.00 in0.0 mm
05:00 PM 100.9°F38.3°C 60.8°F16.0°C 27% 1.2 mph NW1.9 kmh NW 2.3 mph3.7 kmh 29.67 in1004.7 mb - 0.00 in0.0 mm 0.00 in0.0 mm
05:10 PM 100.5°F38.1°C 61.5°F16.4°C 28% Calm Calm -- 29.67 in1004.7 mb - 0.00 in0.0 mm 0.00 in0.0 mm
05:15 PM 100.2°F37.9°C 62.2°F16.8°C 29% Calm Calm -- 29.67 in1004.7 mb - 0.00 in0.0 mm 0.00 in0.0 mm
05:20 PM 99.9°F37.7°C 61.0°F16.1°C 28% 2.3 mph NNW3.7 kmh NNW 3.5 mph5.6 kmh 29.67 in1004.7 mb - 0.00 in0.0 mm 0.00 in0.0 mm
05:25 PM 99.8°F37.7°C 60.9°F16.1°C 28% 2.3 mph NNW3.7 kmh NNW 3.5 mph5.6 kmh 29.67 in1004.7 mb - 0.00 in0.0 mm 0.00 in0.0 mm
05:30 PM 99.9°F37.7°C 61.0°F16.1°C 28% 1.2 mph N1.9 kmh N 3.5 mph5.6 kmh 29.67 in1004.7 mb - 0.00 in0.0 mm 0.00 in0.0 mm
05:35 PM 99.8°F37.7°C 61.8°F16.6°C 29% Calm Calm -- 29.67 in1004.7 mb - 0.00 in0.0 mm 0.00 in0.0 mm
05:40 PM 99.0°F37.2°C 62.2°F16.8°C 30% Calm Calm 1.2 mph1.9 kmh 29.66 in1004.4 mb - 0.00 in0.0 mm 0.00 in0.0 mm
05:45 PM 98.8°F37.1°C 62.9°F17.2°C 31% Calm Calm -- 29.66 in1004.4 mb - 0.00 in0.0 mm 0.00 in0.0 mm
05:50 PM 98.5°F36.9°C 62.6°F17.0°C 31% Calm Calm -- 29.66 in1004.4 mb - 0.00 in0.0 mm 0.00 in0.0 mm
05:55 PM 98.1°F36.7°C 61.3°F16.3°C 30% Calm Calm -- 29.66 in1004.4 mb - 0.00 in0.0 mm 0.00 in0.0 mm
06:00 PM 98.4°F36.9°C 62.6°F17.0°C 31% Calm Calm 3.5 mph5.6 kmh 29.66 in1004.4 mb - 0.00 in0.0 mm 0.00 in0.0 mm
06:10 PM 98.0°F36.7°C 61.3°F16.3°C 30% 1.2 mph NW1.9 kmh NW -- 29.66 in1004.4 mb - 0.00 in0.0 mm 0.00 in0.0 mm
06:15 PM 97.8°F36.6°C 61.1°F16.2°C 30% 1.2 mph N1.9 kmh N 1.2 mph1.9 kmh 29.66 in1004.4 mb - 0.00 in0.0 mm 0.00 in0.0 mm
06:20 PM 98.1°F36.7°C 61.4°F16.3°C 30% Calm Calm -- 29.66 in1004.4 mb - 0.00 in0.0 mm 0.00 in0.0 mm
06:25 PM 97.6°F36.4°C 61.9°F16.6°C 31% Calm Calm -- 29.65 in1004.1 mb - 0.00 in0.0 mm 0.00 in0.0 mm
06:30 PM 97.0°F36.1°C 63.2°F17.3°C 33% Calm Calm -- 29.66 in1004.4 mb - 0.00 in0.0 mm 0.00 in0.0 mm
06:35 PM 96.6°F35.9°C 64.5°F18.1°C 35% Calm Calm -- 29.66 in1004.4 mb - 0.00 in0.0 mm 0.00 in0.0 mm
06:40 PM 96.2°F35.7°C 63.3°F17.4°C 34% Calm Calm 1.2 mph1.9 kmh 29.66 in1004.4 mb - 0.00 in0.0 mm 0.00 in0.0 mm
06:45 PM 96.3°F35.7°C 64.2°F17.9°C 35% Calm Calm -- 29.66 in1004.4 mb - 0.00 in0.0 mm 0.00 in0.0 mm
06:50 PM 96.2°F35.7°C 63.3°F17.4°C 34% Calm Calm -- 29.66 in1004.4 mb - 0.00 in0.0 mm 0.00 in0.0 mm
06:55 PM 95.6°F35.3°C 64.4°F18.0°C 36% Calm Calm -- 29.66 in1004.4 mb - 0.00 in0.0 mm 0.00 in0.0 mm
07:00 PM 95.2°F35.1°C 65.5°F18.6°C 38% Calm Calm -- 29.66 in1004.4 mb - 0.00 in0.0 mm 0.00 in0.0 mm
07:10 PM 93.9°F34.4°C 66.0°F18.9°C 40% Calm Calm -- 29.66 in1004.4 mb - 0.00 in0.0 mm 0.00 in0.0 mm
07:15 PM 93.5°F34.2°C 66.2°F19.0°C 41% Calm Calm -- 29.66 in1004.4 mb - 0.00 in0.0 mm 0.00 in0.0 mm
07:20 PM 92.9°F33.8°C 66.4°F19.1°C 42% Calm Calm -- 29.66 in1004.4 mb - 0.00 in0.0 mm 0.00 in0.0 mm
07:25 PM 92.5°F33.6°C 66.0°F18.9°C 42% Calm Calm -- 29.66 in1004.4 mb - 0.00 in0.0 mm 0.00 in0.0 mm
07:30 PM 92.0°F33.3°C 66.3°F19.1°C 43% Calm Calm -- 29.66 in1004.4 mb - 0.00 in0.0 mm 0.00 in0.0 mm
07:35 PM 91.5°F33.1°C 66.5°F19.2°C 44% Calm Calm -- 29.66 in1004.4 mb - 0.00 in0.0 mm 0.00 in0.0 mm
07:40 PM 91.0°F32.8°C 66.7°F19.3°C 45% Calm Calm -- 29.66 in1004.4 mb - 0.00 in0.0 mm 0.00 in0.0 mm
07:45 PM 90.6°F32.6°C 66.3°F19.1°C 45% Calm Calm -- 29.66 in1004.4 mb - 0.00 in0.0 mm 0.00 in0.0 mm
07:50 PM 90.1°F32.3°C 66.6°F19.2°C 46% Calm Calm -- 29.66 in1004.4 mb - 0.00 in0.0 mm 0.00 in0.0 mm
07:55 PM 89.7°F32.1°C 66.8°F19.3°C 47% Calm Calm -- 29.66 in1004.4 mb - 0.00 in0.0 mm 0.00 in0.0 mm
08:00 PM 89.3°F31.8°C 66.4°F19.1°C 47% Calm Calm -- 29.66 in1004.4 mb - 0.00 in0.0 mm 0.00 in0.0 mm
08:10 PM 88.4°F31.3°C 67.4°F19.7°C 50% Calm Calm -- 29.66 in1004.4 mb - 0.00 in0.0 mm 0.00 in0.0 mm
08:15 PM 88.0°F31.1°C 67.0°F19.4°C 50% Calm Calm -- 29.66 in1004.4 mb - 0.00 in0.0 mm 0.00 in0.0 mm
08:20 PM 87.6°F30.9°C 67.2°F19.6°C 51% Calm Calm -- 29.67 in1004.7 mb - 0.00 in0.0 mm 0.00 in0.0 mm
08:25 PM 87.2°F30.7°C 66.9°F19.4°C 51% Calm Calm -- 29.67 in1004.7 mb - 0.00 in0.0 mm 0.00 in0.0 mm
08:30 PM 86.7°F30.4°C 67.0°F19.4°C 52% Calm Calm -- 29.67 in1004.7 mb - 0.00 in0.0 mm 0.00 in0.0 mm
08:35 PM 86.3°F30.2°C 67.1°F19.5°C 53% Calm Calm -- 29.67 in1004.7 mb - 0.00 in0.0 mm 0.00 in0.0 mm
08:40 PM 85.9°F29.9°C 67.3°F19.6°C 54% Calm Calm -- 29.67 in1004.7 mb - 0.00 in0.0 mm 0.00 in0.0 mm
08:45 PM 85.5°F29.7°C 67.5°F19.7°C 55% Calm Calm -- 29.67 in1004.7 mb - 0.00 in0.0 mm 0.00 in0.0 mm
08:50 PM 85.1°F29.5°C 67.7°F19.8°C 56% Calm Calm -- 29.68 in1005.1 mb - 0.00 in0.0 mm 0.00 in0.0 mm
08:55 PM 84.7°F29.3°C 67.8°F19.9°C 57% Calm Calm -- 29.68 in1005.1 mb - 0.00 in0.0 mm 0.00 in0.0 mm
09:00 PM 84.5°F29.2°C 67.6°F19.8°C 57% Calm Calm 1.2 mph1.9 kmh 29.68 in1005.1 mb - 0.00 in0.0 mm 0.00 in0.0 mm
09:10 PM 83.8°F28.8°C 67.5°F19.7°C 58% Calm Calm -- 29.68 in1005.1 mb - 0.00 in0.0 mm 0.00 in0.0 mm
09:15 PM 83.6°F28.7°C 67.2°F19.6°C 58% Calm Calm -- 29.68 in1005.1 mb - 0.00 in0.0 mm 0.00 in0.0 mm
09:20 PM 83.3°F28.5°C 67.0°F19.4°C 58% Calm Calm -- 29.69 in1005.4 mb - 0.00 in0.0 mm 0.00 in0.0 mm
09:25 PM 83.0°F28.3°C 67.2°F19.6°C 59% Calm Calm -- 29.69 in1005.4 mb - 0.00 in0.0 mm 0.00 in0.0 mm
09:30 PM 82.8°F28.2°C 67.5°F19.7°C 60% Calm Calm -- 29.69 in1005.4 mb - 0.00 in0.0 mm 0.00 in0.0 mm
09:35 PM 82.6°F28.1°C 67.3°F19.6°C 60% Calm Calm -- 29.69 in1005.4 mb - 0.00 in0.0 mm 0.00 in0.0 mm
09:40 PM 82.4°F28.0°C 67.6°F19.8°C 61% Calm Calm -- 29.69 in1005.4 mb - 0.00 in0.0 mm 0.00 in0.0 mm
09:45 PM 82.1°F27.8°C 67.3°F19.6°C 61% Calm Calm -- 29.69 in1005.4 mb - 0.00 in0.0 mm 0.00 in0.0 mm
09:50 PM 82.0°F27.8°C 67.2°F19.6°C 61% Calm Calm -- 29.70 in1005.8 mb - 0.00 in0.0 mm 0.00 in0.0 mm
09:55 PM 81.8°F27.7°C 67.5°F19.7°C 62% Calm Calm -- 29.70 in1005.8 mb - 0.00 in0.0 mm 0.00 in0.0 mm
10:00 PM 81.7°F27.6°C 67.4°F19.7°C 62% Calm Calm -- 29.70 in1005.8 mb - 0.00 in0.0 mm 0.00 in0.0 mm
10:10 PM 81.4°F27.4°C 67.6°F19.8°C 63% Calm Calm -- 29.70 in1005.8 mb - 0.00 in0.0 mm 0.00 in0.0 mm
10:15 PM 81.1°F27.3°C 67.8°F19.9°C 64% Calm Calm -- 29.70 in1005.8 mb - 0.00 in0.0 mm 0.00 in0.0 mm
10:20 PM 81.0°F27.2°C 67.2°F19.6°C 63% Calm Calm -- 29.70 in1005.8 mb - 0.00 in0.0 mm 0.00 in0.0 mm
10:25 PM 80.9°F27.2°C 67.6°F19.8°C 64% Calm Calm -- 29.70 in1005.8 mb - 0.00 in0.0 mm 0.00 in0.0 mm
10:30 PM 80.8°F27.1°C 67.5°F19.7°C 64% Calm Calm -- 29.70 in1005.8 mb - 0.00 in0.0 mm 0.00 in0.0 mm
10:35 PM 80.7°F27.1°C 67.4°F19.7°C 64% Calm Calm -- 29.71 in1006.1 mb - 0.00 in0.0 mm 0.00 in0.0 mm
10:40 PM 80.5°F26.9°C 67.6°F19.8°C 65% Calm Calm -- 29.71 in1006.1 mb - 0.00 in0.0 mm 0.00 in0.0 mm
10:45 PM 80.3°F26.8°C 67.5°F19.7°C 65% Calm Calm -- 29.71 in1006.1 mb - 0.00 in0.0 mm 0.00 in0.0 mm
10:50 PM 80.2°F26.8°C 67.8°F19.9°C 66% Calm Calm -- 29.71 in1006.1 mb - 0.00 in0.0 mm 0.00 in0.0 mm
10:55 PM 80.0°F26.7°C 67.6°F19.8°C 66% Calm Calm -- 29.71 in1006.1 mb - 0.00 in0.0 mm 0.00 in0.0 mm
11:00 PM 79.9°F26.6°C 67.5°F19.7°C 66% Calm Calm -- 29.71 in1006.1 mb - 0.00 in0.0 mm 0.00 in0.0 mm
11:10 PM 79.6°F26.4°C 67.2°F19.6°C 66% Calm Calm -- 29.70 in1005.8 mb - 0.00 in0.0 mm 0.00 in0.0 mm
11:15 PM 79.5°F26.4°C 67.2°F19.6°C 66% Calm Calm -- 29.70 in1005.8 mb - 0.00 in0.0 mm 0.00 in0.0 mm
11:20 PM 79.4°F26.3°C 67.1°F19.5°C 66% Calm Calm -- 29.70 in1005.8 mb - 0.00 in0.0 mm 0.00 in0.0 mm
11:25 PM 79.4°F26.3°C 67.0°F19.4°C 66% Calm Calm -- 29.70 in1005.8 mb - 0.00 in0.0 mm 0.00 in0.0 mm
11:30 PM 79.3°F26.3°C 67.0°F19.4°C 66% Calm Calm -- 29.70 in1005.8 mb - 0.00 in0.0 mm 0.00 in0.0 mm
11:35 PM 79.1°F26.2°C 66.8°F19.3°C 66% Calm Calm -- 29.70 in1005.8 mb - 0.00 in0.0 mm 0.00 in0.0 mm
11:40 PM 79.0°F26.1°C 66.7°F19.3°C 66% Calm Calm -- 29.70 in1005.8 mb - 0.00 in0.0 mm 0.00 in0.0 mm
11:45 PM 78.9°F26.1°C 66.6°F19.2°C 66% Calm Calm -- 29.70 in1005.8 mb - 0.00 in0.0 mm 0.00 in0.0 mm
11:50 PM 78.8°F26.0°C 66.5°F19.2°C 66% Calm Calm -- 29.70 in1005.8 mb - 0.00 in0.0 mm 0.00 in0.0 mm
11:55 PM 78.7°F25.9°C 66.4°F19.1°C 66% Calm Calm -- 29.70 in1005.8 mb - 0.00 in0.0 mm 0.00 in0.0 mm